sensor_id;sensor_type;location;lat;lon;timestamp;temperature;humidity
10316;DHT22;5203;48.976;8.306;2023-01-29T00:02:20;2.10;69.80
10316;DHT22;5203;48.976;8.306;2023-01-29T00:04:49;2.10;68.20
10316;DHT22;5203;48.976;8.306;2023-01-29T00:07:17;2.10;68.20
10316;DHT22;5203;48.976;8.306;2023-01-29T00:09:43;2.00;68.90
10316;DHT22;5203;48.976;8.306;2023-01-29T00:12:09;1.90;70.40
10316;DHT22;5203;48.976;8.306;2023-01-29T00:14:35;1.90;70.20
10316;DHT22;5203;48.976;8.306;2023-01-29T00:17:00;1.90;70.30
10316;DHT22;5203;48.976;8.306;2023-01-29T00:19:26;1.90;70.40
10316;DHT22;5203;48.976;8.306;2023-01-29T00:21:52;1.80;68.80
10316;DHT22;5203;48.976;8.306;2023-01-29T00:24:17;1.80;70.90
10316;DHT22;5203;48.976;8.306;2023-01-29T00:26:43;1.90;72.00
10316;DHT22;5203;48.976;8.306;2023-01-29T00:29:09;1.90;72.30
10316;DHT22;5203;48.976;8.306;2023-01-29T00:31:34;2.00;71.40
10316;DHT22;5203;48.976;8.306;2023-01-29T00:34:00;2.00;72.00
10316;DHT22;5203;48.976;8.306;2023-01-29T00:36:26;2.00;73.50
10316;DHT22;5203;48.976;8.306;2023-01-29T00:38:56;2.10;73.00
10316;DHT22;5203;48.976;8.306;2023-01-29T00:41:31;2.10;71.40
10316;DHT22;5203;48.976;8.306;2023-01-29T00:44:16;2.00;70.90
10316;DHT22;5203;48.976;8.306;2023-01-29T00:47:01;1.90;71.50
10316;DHT22;5203;48.976;8.306;2023-01-29T00:49:27;1.90;70.80
10316;DHT22;5203;48.976;8.306;2023-01-29T00:51:54;1.90;70.40
10316;DHT22;5203;48.976;8.306;2023-01-29T00:54:38;1.80;70.40
10316;DHT22;5203;48.976;8.306;2023-01-29T00:57:04;1.80;71.90
10316;DHT22;5203;48.976;8.306;2023-01-29T00:59:29;1.90;70.30
10316;DHT22;5203;48.976;8.306;2023-01-29T01:01:55;1.90;69.50
10316;DHT22;5203;48.976;8.306;2023-01-29T01:04:40;2.00;72.20
10316;DHT22;5203;48.976;8.306;2023-01-29T01:07:06;2.10;73.60
10316;DHT22;5203;48.976;8.306;2023-01-29T01:09:33;2.10;71.20
10316;DHT22;5203;48.976;8.306;2023-01-29T01:12:17;2.20;72.10
10316;DHT22;5203;48.976;8.306;2023-01-29T01:14:43;2.20;70.70
10316;DHT22;5203;48.976;8.306;2023-01-29T01:17:09;2.20;70.60
10316;DHT22;5203;48.976;8.306;2023-01-29T01:19:34;2.30;69.70
10316;DHT22;5203;48.976;8.306;2023-01-29T01:22:00;2.20;68.70
10316;DHT22;5203;48.976;8.306;2023-01-29T01:24:26;2.10;68.80
10316;DHT22;5203;48.976;8.306;2023-01-29T01:26:51;2.10;69.60
10316;DHT22;5203;48.976;8.306;2023-01-29T01:29:17;2.10;71.40
10316;DHT22;5203;48.976;8.306;2023-01-29T01:31:43;2.10;70.50
10316;DHT22;5203;48.976;8.306;2023-01-29T01:34:10;2.10;69.10
10316;DHT22;5203;48.976;8.306;2023-01-29T01:36:35;2.00;68.90
10316;DHT22;5203;48.976;8.306;2023-01-29T01:39:01;2.00;69.20
10316;DHT22;5203;48.976;8.306;2023-01-29T01:41:26;1.90;69.10
10316;DHT22;5203;48.976;8.306;2023-01-29T01:44:00;1.80;70.00
10316;DHT22;5203;48.976;8.306;2023-01-29T01:46:31;1.80;71.40
10316;DHT22;5203;48.976;8.306;2023-01-29T01:49:11;1.70;70.90
10316;DHT22;5203;48.976;8.306;2023-01-29T01:51:43;1.50;70.80
10316;DHT22;5203;48.976;8.306;2023-01-29T01:54:19;1.50;72.80
10316;DHT22;5203;48.976;8.306;2023-01-29T01:56:51;1.60;74.40
10316;DHT22;5203;48.976;8.306;2023-01-29T01:59:20;1.60;73.50
10316;DHT22;5203;48.976;8.306;2023-01-29T02:01:49;1.70;74.40
10316;DHT22;5203;48.976;8.306;2023-01-29T02:04:23;1.80;74.30
10316;DHT22;5203;48.976;8.306;2023-01-29T02:07:11;1.80;72.00
10316;DHT22;5203;48.976;8.306;2023-01-29T02:10:22;1.90;73.10
10316;DHT22;5203;48.976;8.306;2023-01-29T02:12:47;2.00;71.40
10316;DHT22;5203;48.976;8.306;2023-01-29T02:15:12;2.00;70.40
10316;DHT22;5203;48.976;8.306;2023-01-29T02:17:38;2.00;70.00
10316;DHT22;5203;48.976;8.306;2023-01-29T02:20:24;2.00;71.90
10316;DHT22;5203;48.976;8.306;2023-01-29T02:22:57;2.00;72.70
10316;DHT22;5203;48.976;8.306;2023-01-29T02:39:05;1.80;73.00
10316;DHT22;5203;48.976;8.306;2023-01-29T02:41:52;1.90;72.40
10316;DHT22;5203;48.976;8.306;2023-01-29T02:44:22;1.80;69.30
10316;DHT22;5203;48.976;8.306;2023-01-29T02:46:56;1.80;71.40
10316;DHT22;5203;48.976;8.306;2023-01-29T02:52:15;1.60;72.90
10316;DHT22;5203;48.976;8.306;2023-01-29T02:57:31;1.60;75.60
10316;DHT22;5203;48.976;8.306;2023-01-29T03:05:38;1.80;74.20
10316;DHT22;5203;48.976;8.306;2023-01-29T03:08:10;1.80;74.70
10316;DHT22;5203;48.976;8.306;2023-01-29T03:10:39;2.00;74.20
10316;DHT22;5203;48.976;8.306;2023-01-29T03:13:23;2.00;73.90
10316;DHT22;5203;48.976;8.306;2023-01-29T03:16:18;2.10;71.70
10316;DHT22;5203;48.976;8.306;2023-01-29T03:18:54;2.10;72.70
10316;DHT22;5203;48.976;8.306;2023-01-29T03:21:31;2.20;73.80
10316;DHT22;5203;48.976;8.306;2023-01-29T03:24:48;2.10;71.70
10316;DHT22;5203;48.976;8.306;2023-01-29T03:27:46;2.00;72.00
10316;DHT22;5203;48.976;8.306;2023-01-29T03:30:35;1.90;72.30
10316;DHT22;5203;48.976;8.306;2023-01-29T03:33:22;1.90;73.90
10316;DHT22;5203;48.976;8.306;2023-01-29T03:36:02;1.90;76.00
10316;DHT22;5203;48.976;8.306;2023-01-29T03:38:29;2.00;76.40
10316;DHT22;5203;48.976;8.306;2023-01-29T03:41:09;1.90;75.20
10316;DHT22;5203;48.976;8.306;2023-01-29T03:43:44;1.90;73.60
10316;DHT22;5203;48.976;8.306;2023-01-29T03:46:28;1.90;74.70
10316;DHT22;5203;48.976;8.306;2023-01-29T03:49:06;1.80;73.90
10316;DHT22;5203;48.976;8.306;2023-01-29T03:56:38;1.90;74.80
10316;DHT22;5203;48.976;8.306;2023-01-29T04:01:44;1.80;74.00
10316;DHT22;5203;48.976;8.306;2023-01-29T04:04:33;1.70;74.30
10316;DHT22;5203;48.976;8.306;2023-01-29T04:07:04;1.70;74.30
10316;DHT22;5203;48.976;8.306;2023-01-29T04:09:49;1.50;75.60
10316;DHT22;5203;48.976;8.306;2023-01-29T04:12:21;1.50;76.10
10316;DHT22;5203;48.976;8.306;2023-01-29T04:14:49;1.40;75.50
10316;DHT22;5203;48.976;8.306;2023-01-29T04:17:22;1.40;74.50
10316;DHT22;5203;48.976;8.306;2023-01-29T04:19:49;1.40;73.90
10316;DHT22;5203;48.976;8.306;2023-01-29T04:22:23;1.20;75.10
10316;DHT22;5203;48.976;8.306;2023-01-29T04:24:51;1.30;77.80
10316;DHT22;5203;48.976;8.306;2023-01-29T04:27:28;1.30;78.30
10316;DHT22;5203;48.976;8.306;2023-01-29T04:36:40;1.50;77.00
10316;DHT22;5203;48.976;8.306;2023-01-29T04:39:17;1.60;76.80
10316;DHT22;5203;48.976;8.306;2023-01-29T04:41:54;1.60;77.70
10316;DHT22;5203;48.976;8.306;2023-01-29T04:50:25;1.60;76.60
10316;DHT22;5203;48.976;8.306;2023-01-29T05:00:58;1.70;73.00
10316;DHT22;5203;48.976;8.306;2023-01-29T05:03:25;1.50;74.20
10316;DHT22;5203;48.976;8.306;2023-01-29T05:05:53;1.50;77.30
10316;DHT22;5203;48.976;8.306;2023-01-29T05:08:23;1.40;77.30
10316;DHT22;5203;48.976;8.306;2023-01-29T05:10:51;1.20;78.60
10316;DHT22;5203;48.976;8.306;2023-01-29T05:13:19;1.20;81.00
10316;DHT22;5203;48.976;8.306;2023-01-29T05:16:08;1.10;81.00
10316;DHT22;5203;48.976;8.306;2023-01-29T05:18:37;1.10;82.40
10316;DHT22;5203;48.976;8.306;2023-01-29T05:21:06;1.20;79.80
10316;DHT22;5203;48.976;8.306;2023-01-29T05:23:32;1.20;79.50
10316;DHT22;5203;48.976;8.306;2023-01-29T05:25:58;1.40;78.40
10316;DHT22;5203;48.976;8.306;2023-01-29T05:28:24;1.40;78.10
10316;DHT22;5203;48.976;8.306;2023-01-29T05:30:52;1.30;77.20
10316;DHT22;5203;48.976;8.306;2023-01-29T05:33:29;1.40;78.20
10316;DHT22;5203;48.976;8.306;2023-01-29T05:35:57;1.60;76.50
10316;DHT22;5203;48.976;8.306;2023-01-29T05:38:23;1.60;75.20
10316;DHT22;5203;48.976;8.306;2023-01-29T05:40:49;1.50;74.40
10316;DHT22;5203;48.976;8.306;2023-01-29T05:43:17;1.40;77.50
10316;DHT22;5203;48.976;8.306;2023-01-29T05:48:19;1.40;77.20
10316;DHT22;5203;48.976;8.306;2023-01-29T05:50:44;1.40;77.00
10316;DHT22;5203;48.976;8.306;2023-01-29T05:53:10;1.40;78.40
10316;DHT22;5203;48.976;8.306;2023-01-29T05:55:36;1.50;79.40
10316;DHT22;5203;48.976;8.306;2023-01-29T05:58:01;1.50;80.20
10316;DHT22;5203;48.976;8.306;2023-01-29T06:00:27;1.60;78.00
10316;DHT22;5203;48.976;8.306;2023-01-29T06:02:52;1.50;75.70
10316;DHT22;5203;48.976;8.306;2023-01-29T06:05:18;1.40;78.30
10316;DHT22;5203;48.976;8.306;2023-01-29T06:07:44;1.40;79.70
10316;DHT22;5203;48.976;8.306;2023-01-29T06:10:14;1.30;80.60
10316;DHT22;5203;48.976;8.306;2023-01-29T06:12:41;1.30;81.50
10316;DHT22;5203;48.976;8.306;2023-01-29T06:15:07;1.30;81.70
10316;DHT22;5203;48.976;8.306;2023-01-29T06:17:33;1.30;82.30
10316;DHT22;5203;48.976;8.306;2023-01-29T06:19:59;1.30;80.90
10316;DHT22;5203;48.976;8.306;2023-01-29T06:22:25;1.40;78.20
10316;DHT22;5203;48.976;8.306;2023-01-29T06:24:51;1.40;77.70
10316;DHT22;5203;48.976;8.306;2023-01-29T06:27:16;1.40;76.30
10316;DHT22;5203;48.976;8.306;2023-01-29T06:29:42;1.40;76.10
10316;DHT22;5203;48.976;8.306;2023-01-29T06:32:07;1.30;76.30
10316;DHT22;5203;48.976;8.306;2023-01-29T06:34:33;1.30;76.70
10316;DHT22;5203;48.976;8.306;2023-01-29T06:36:59;1.30;78.30
10316;DHT22;5203;48.976;8.306;2023-01-29T06:39:24;1.40;78.40
10316;DHT22;5203;48.976;8.306;2023-01-29T06:41:50;1.50;77.70
10316;DHT22;5203;48.976;8.306;2023-01-29T06:44:16;1.50;78.30
10316;DHT22;5203;48.976;8.306;2023-01-29T06:46:41;1.40;77.50
10316;DHT22;5203;48.976;8.306;2023-01-29T06:49:07;1.30;78.30
10316;DHT22;5203;48.976;8.306;2023-01-29T06:51:32;1.40;78.40
10316;DHT22;5203;48.976;8.306;2023-01-29T06:53:58;1.40;76.80
10316;DHT22;5203;48.976;8.306;2023-01-29T06:56:24;1.50;77.40
10316;DHT22;5203;48.976;8.306;2023-01-29T06:58:49;1.50;77.10
10316;DHT22;5203;48.976;8.306;2023-01-29T07:01:15;1.60;76.10
10316;DHT22;5203;48.976;8.306;2023-01-29T07:03:41;1.60;76.40
10316;DHT22;5203;48.976;8.306;2023-01-29T07:06:07;1.60;76.40
10316;DHT22;5203;48.976;8.306;2023-01-29T07:08:37;1.60;77.20
10316;DHT22;5203;48.976;8.306;2023-01-29T07:11:04;1.40;78.80
10316;DHT22;5203;48.976;8.306;2023-01-29T07:13:30;1.40;79.00
10316;DHT22;5203;48.976;8.306;2023-01-29T07:16:00;1.40;80.00
10316;DHT22;5203;48.976;8.306;2023-01-29T07:18:26;1.30;78.00
10316;DHT22;5203;48.976;8.306;2023-01-29T07:20:52;1.30;78.40
10316;DHT22;5203;48.976;8.306;2023-01-29T07:23:18;1.20;78.60
10316;DHT22;5203;48.976;8.306;2023-01-29T07:25:44;1.20;77.80
10316;DHT22;5203;48.976;8.306;2023-01-29T07:28:10;1.20;78.50
10316;DHT22;5203;48.976;8.306;2023-01-29T07:30:36;1.30;80.30
10316;DHT22;5203;48.976;8.306;2023-01-29T07:33:06;1.30;78.70
10316;DHT22;5203;48.976;8.306;2023-01-29T07:35:39;1.30;77.90
10316;DHT22;5203;48.976;8.306;2023-01-29T07:38:06;1.40;78.90
10316;DHT22;5203;48.976;8.306;2023-01-29T07:40:32;1.50;79.80
10316;DHT22;5203;48.976;8.306;2023-01-29T07:43:03;1.60;76.40
10316;DHT22;5203;48.976;8.306;2023-01-29T07:45:30;1.70;76.40
10316;DHT22;5203;48.976;8.306;2023-01-29T07:47:56;1.70;74.80
10316;DHT22;5203;48.976;8.306;2023-01-29T07:50:23;1.70;74.60
10316;DHT22;5203;48.976;8.306;2023-01-29T07:52:50;1.60;75.30
10316;DHT22;5203;48.976;8.306;2023-01-29T07:55:16;1.60;75.00
10316;DHT22;5203;48.976;8.306;2023-01-29T07:57:42;1.50;74.40
10316;DHT22;5203;48.976;8.306;2023-01-29T08:00:09;1.50;75.60
10316;DHT22;5203;48.976;8.306;2023-01-29T08:02:36;1.50;74.70
10316;DHT22;5203;48.976;8.306;2023-01-29T08:05:02;1.50;74.80
10316;DHT22;5203;48.976;8.306;2023-01-29T08:07:27;1.50;75.60
10316;DHT22;5203;48.976;8.306;2023-01-29T08:09:53;1.60;76.00
10316;DHT22;5203;48.976;8.306;2023-01-29T08:12:19;1.60;74.60
10316;DHT22;5203;48.976;8.306;2023-01-29T08:14:44;1.40;75.20
10316;DHT22;5203;48.976;8.306;2023-01-29T08:17:11;1.40;77.50
10316;DHT22;5203;48.976;8.306;2023-01-29T08:19:37;1.60;76.90
10316;DHT22;5203;48.976;8.306;2023-01-29T08:22:04;1.70;74.10
10316;DHT22;5203;48.976;8.306;2023-01-29T08:24:30;1.70;75.40
10316;DHT22;5203;48.976;8.306;2023-01-29T08:26:56;1.80;72.70
10316;DHT22;5203;48.976;8.306;2023-01-29T08:29:22;1.70;72.70
10316;DHT22;5203;48.976;8.306;2023-01-29T08:31:47;1.70;73.80
10316;DHT22;5203;48.976;8.306;2023-01-29T08:34:13;1.70;73.80
10316;DHT22;5203;48.976;8.306;2023-01-29T08:36:39;1.80;74.30
10316;DHT22;5203;48.976;8.306;2023-01-29T08:39:04;1.80;72.80
10316;DHT22;5203;48.976;8.306;2023-01-29T08:41:30;1.80;73.30
10316;DHT22;5203;48.976;8.306;2023-01-29T08:43:55;1.90;71.90
10316;DHT22;5203;48.976;8.306;2023-01-29T08:46:22;1.90;71.00
10316;DHT22;5203;48.976;8.306;2023-01-29T08:48:48;1.80;70.20
10316;DHT22;5203;48.976;8.306;2023-01-29T08:51:13;1.80;72.00
10316;DHT22;5203;48.976;8.306;2023-01-29T08:53:39;1.80;71.80
10316;DHT22;5203;48.976;8.306;2023-01-29T08:56:05;1.90;71.10
10316;DHT22;5203;48.976;8.306;2023-01-29T08:58:31;1.90;70.20
10316;DHT22;5203;48.976;8.306;2023-01-29T09:01:05;2.00;69.80
10316;DHT22;5203;48.976;8.306;2023-01-29T09:03:31;2.00;69.70
10316;DHT22;5203;48.976;8.306;2023-01-29T09:05:56;2.10;69.60
10316;DHT22;5203;48.976;8.306;2023-01-29T09:08:22;2.10;68.90
10316;DHT22;5203;48.976;8.306;2023-01-29T09:10:48;2.10;68.00
10316;DHT22;5203;48.976;8.306;2023-01-29T09:13:13;2.10;68.00
10316;DHT22;5203;48.976;8.306;2023-01-29T09:15:39;2.00;68.40
10316;DHT22;5203;48.976;8.306;2023-01-29T09:18:05;2.10;69.30
10316;DHT22;5203;48.976;8.306;2023-01-29T09:20:31;2.10;68.20
10316;DHT22;5203;48.976;8.306;2023-01-29T09:22:57;2.00;68.80
10316;DHT22;5203;48.976;8.306;2023-01-29T09:25:23;2.00;68.60
10316;DHT22;5203;48.976;8.306;2023-01-29T09:27:49;2.10;68.50
10316;DHT22;5203;48.976;8.306;2023-01-29T09:30:15;2.10;68.10
10316;DHT22;5203;48.976;8.306;2023-01-29T09:32:41;2.20;67.40
10316;DHT22;5203;48.976;8.306;2023-01-29T09:35:07;2.20;65.30
10316;DHT22;5203;48.976;8.306;2023-01-29T09:37:33;2.20;65.00
10316;DHT22;5203;48.976;8.306;2023-01-29T09:39:59;2.10;64.90
10316;DHT22;5203;48.976;8.306;2023-01-29T09:42:29;2.20;64.70
10316;DHT22;5203;48.976;8.306;2023-01-29T09:47:35;2.20;64.60
10316;DHT22;5203;48.976;8.306;2023-01-29T09:52:42;2.50;64.20
10316;DHT22;5203;48.976;8.306;2023-01-29T09:55:17;2.40;64.50
10316;DHT22;5203;48.976;8.306;2023-01-29T09:57:58;2.60;63.70
10316;DHT22;5203;48.976;8.306;2023-01-29T10:00:50;2.70;63.20
10316;DHT22;5203;48.976;8.306;2023-01-29T10:03:51;2.80;62.90
10316;DHT22;5203;48.976;8.306;2023-01-29T10:09:43;3.00;61.00
10316;DHT22;5203;48.976;8.306;2023-01-29T10:12:23;3.00;60.90
10316;DHT22;5203;48.976;8.306;2023-01-29T10:18:49;2.90;62.70
10316;DHT22;5203;48.976;8.306;2023-01-29T10:21:18;2.90;61.30
10316;DHT22;5203;48.976;8.306;2023-01-29T10:24:26;2.90;61.30
10316;DHT22;5203;48.976;8.306;2023-01-29T10:27:20;3.10;61.50
10316;DHT22;5203;48.976;8.306;2023-01-29T10:30:30;3.30;61.90
10316;DHT22;5203;48.976;8.306;2023-01-29T10:33:02;3.10;59.90
10316;DHT22;5203;48.976;8.306;2023-01-29T10:35:42;3.30;61.50
10316;DHT22;5203;48.976;8.306;2023-01-29T10:41:21;3.60;59.90
10316;DHT22;5203;48.976;8.306;2023-01-29T10:53:07;3.60;59.50
10316;DHT22;5203;48.976;8.306;2023-01-29T10:58:37;3.40;60.20
10316;DHT22;5203;48.976;8.306;2023-01-29T11:01:03;3.40;59.70
10316;DHT22;5203;48.976;8.306;2023-01-29T11:03:32;3.50;60.20
10316;DHT22;5203;48.976;8.306;2023-01-29T11:08:53;3.30;62.00
10316;DHT22;5203;48.976;8.306;2023-01-29T11:14:46;3.40;60.50
10316;DHT22;5203;48.976;8.306;2023-01-29T11:17:27;3.30;60.40
10316;DHT22;5203;48.976;8.306;2023-01-29T11:19:54;3.50;58.90
10316;DHT22;5203;48.976;8.306;2023-01-29T11:22:28;3.50;58.70
10316;DHT22;5203;48.976;8.306;2023-01-29T11:25:07;3.50;58.60
10316;DHT22;5203;48.976;8.306;2023-01-29T11:27:49;3.60;59.70
10316;DHT22;5203;48.976;8.306;2023-01-29T11:30:26;3.80;58.20
10316;DHT22;5203;48.976;8.306;2023-01-29T11:33:18;3.90;57.70
10316;DHT22;5203;48.976;8.306;2023-01-29T11:35:45;4.00;57.70
10316;DHT22;5203;48.976;8.306;2023-01-29T11:38:25;4.00;57.30
10316;DHT22;5203;48.976;8.306;2023-01-29T11:40:51;4.10;58.20
10316;DHT22;5203;48.976;8.306;2023-01-29T11:43:30;4.30;57.10
10316;DHT22;5203;48.976;8.306;2023-01-29T11:46:20;4.30;56.70
10316;DHT22;5203;48.976;8.306;2023-01-29T11:49:23;4.00;57.10
10316;DHT22;5203;48.976;8.306;2023-01-29T11:52:12;4.00;58.20
10316;DHT22;5203;48.976;8.306;2023-01-29T11:55:02;4.30;57.10
10316;DHT22;5203;48.976;8.306;2023-01-29T11:57:57;4.40;57.20
10316;DHT22;5203;48.976;8.306;2023-01-29T12:00:34;4.40;57.20
10316;DHT22;5203;48.976;8.306;2023-01-29T12:06:22;4.50;55.90
10316;DHT22;5203;48.976;8.306;2023-01-29T12:08:54;4.80;56.60
10316;DHT22;5203;48.976;8.306;2023-01-29T12:11:41;4.90;56.20
10316;DHT22;5203;48.976;8.306;2023-01-29T12:14:36;4.60;57.70
10316;DHT22;5203;48.976;8.306;2023-01-29T12:17:16;5.10;54.00
10316;DHT22;5203;48.976;8.306;2023-01-29T12:19:55;5.20;55.00
10316;DHT22;5203;48.976;8.306;2023-01-29T12:22:47;5.20;54.80
10316;DHT22;5203;48.976;8.306;2023-01-29T12:37:55;5.10;54.40
10316;DHT22;5203;48.976;8.306;2023-01-29T12:40:28;4.90;54.70
10316;DHT22;5203;48.976;8.306;2023-01-29T12:43:01;4.90;56.60
10316;DHT22;5203;48.976;8.306;2023-01-29T12:45:41;5.30;53.90
10316;DHT22;5203;48.976;8.306;2023-01-29T12:48:21;5.60;52.50
10316;DHT22;5203;48.976;8.306;2023-01-29T12:50:52;5.90;52.10
10316;DHT22;5203;48.976;8.306;2023-01-29T12:54:02;6.00;53.00
10316;DHT22;5203;48.976;8.306;2023-01-29T12:59:58;6.20;50.80
10316;DHT22;5203;48.976;8.306;2023-01-29T13:02:44;6.10;51.00
10316;DHT22;5203;48.976;8.306;2023-01-29T13:05:43;6.00;51.30
10316;DHT22;5203;48.976;8.306;2023-01-29T13:08:43;6.10;51.00
10316;DHT22;5203;48.976;8.306;2023-01-29T13:11:32;5.20;53.80
10316;DHT22;5203;48.976;8.306;2023-01-29T13:19:48;4.20;58.00
10316;DHT22;5203;48.976;8.306;2023-01-29T13:22:35;4.70;57.90
10316;DHT22;5203;48.976;8.306;2023-01-29T13:25:25;5.00;55.40
10316;DHT22;5203;48.976;8.306;2023-01-29T13:27:52;5.20;55.60
10316;DHT22;5203;48.976;8.306;2023-01-29T13:32:59;5.40;54.10
10316;DHT22;5203;48.976;8.306;2023-01-29T13:35:43;5.40;54.60
10316;DHT22;5203;48.976;8.306;2023-01-29T13:38:25;5.80;53.30
10316;DHT22;5203;48.976;8.306;2023-01-29T13:40:54;6.00;51.60
10316;DHT22;5203;48.976;8.306;2023-01-29T13:43:25;6.00;51.90
10316;DHT22;5203;48.976;8.306;2023-01-29T13:45:53;5.80;51.70
10316;DHT22;5203;48.976;8.306;2023-01-29T13:48:26;5.80;53.10
10316;DHT22;5203;48.976;8.306;2023-01-29T13:51:20;6.00;50.40
10316;DHT22;5203;48.976;8.306;2023-01-29T13:54:00;6.00;50.60
10316;DHT22;5203;48.976;8.306;2023-01-29T13:59:48;5.20;54.50
10316;DHT22;5203;48.976;8.306;2023-01-29T14:05:41;4.30;58.00
10316;DHT22;5203;48.976;8.306;2023-01-29T14:08:53;4.00;59.90
10316;DHT22;5203;48.976;8.306;2023-01-29T14:11:41;4.40;57.70
10316;DHT22;5203;48.976;8.306;2023-01-29T14:17:37;5.00;57.30
10316;DHT22;5203;48.976;8.306;2023-01-29T14:20:29;5.20;55.20
10316;DHT22;5203;48.976;8.306;2023-01-29T15:14:25;3.80;63.50
10316;DHT22;5203;48.976;8.306;2023-01-29T15:19:27;4.60;59.50
10316;DHT22;5203;48.976;8.306;2023-01-29T15:22:24;4.60;58.70
10316;DHT22;5203;48.976;8.306;2023-01-29T15:25:22;4.40;60.50
10316;DHT22;5203;48.976;8.306;2023-01-29T15:28:19;4.50;59.40
10316;DHT22;5203;48.976;8.306;2023-01-29T15:30:58;4.40;59.40
10316;DHT22;5203;48.976;8.306;2023-01-29T15:33:26;4.30;60.00
10316;DHT22;5203;48.976;8.306;2023-01-29T15:36:22;4.10;61.10
10316;DHT22;5203;48.976;8.306;2023-01-29T15:41:34;3.90;62.70
10316;DHT22;5203;48.976;8.306;2023-01-29T15:44:00;3.70;64.00
10316;DHT22;5203;48.976;8.306;2023-01-29T15:46:36;3.50;64.30
10316;DHT22;5203;48.976;8.306;2023-01-29T15:49:18;3.30;65.50
10316;DHT22;5203;48.976;8.306;2023-01-29T15:52:21;3.10;66.40
10316;DHT22;5203;48.976;8.306;2023-01-29T15:54:52;3.30;65.50
10316;DHT22;5203;48.976;8.306;2023-01-29T15:57:28;3.00;66.10
10316;DHT22;5203;48.976;8.306;2023-01-29T16:00:18;2.80;67.20
10316;DHT22;5203;48.976;8.306;2023-01-29T16:02:43;2.70;67.90
10316;DHT22;5203;48.976;8.306;2023-01-29T16:05:46;2.70;68.20
10316;DHT22;5203;48.976;8.306;2023-01-29T16:08:48;2.80;67.80
10316;DHT22;5203;48.976;8.306;2023-01-29T16:42:29;2.00;70.80
10316;DHT22;5203;48.976;8.306;2023-01-29T16:45:35;2.00;71.10
10316;DHT22;5203;48.976;8.306;2023-01-29T16:48:32;1.90;72.00
10316;DHT22;5203;48.976;8.306;2023-01-29T16:51:33;1.90;72.20
10316;DHT22;5203;48.976;8.306;2023-01-29T16:57:33;1.70;73.50
10316;DHT22;5203;48.976;8.306;2023-01-29T17:10:29;1.60;75.20
10316;DHT22;5203;48.976;8.306;2023-01-29T17:15:49;1.50;76.00
10316;DHT22;5203;48.976;8.306;2023-01-29T17:25:51;1.40;76.50
10316;DHT22;5203;48.976;8.306;2023-01-29T17:28:37;1.30;77.40
10316;DHT22;5203;48.976;8.306;2023-01-29T17:31:38;1.30;78.00
10316;DHT22;5203;48.976;8.306;2023-01-29T17:34:25;1.20;78.50
10316;DHT22;5203;48.976;8.306;2023-01-29T17:36:57;1.10;78.90
10316;DHT22;5203;48.976;8.306;2023-01-29T17:39:55;1.10;78.90
10316;DHT22;5203;48.976;8.306;2023-01-29T17:42:21;1.20;78.70
10316;DHT22;5203;48.976;8.306;2023-01-29T17:44:47;1.10;79.40
10316;DHT22;5203;48.976;8.306;2023-01-29T17:47:19;1.10;79.70
10316;DHT22;5203;48.976;8.306;2023-01-29T17:50:27;1.00;80.10
10316;DHT22;5203;48.976;8.306;2023-01-29T17:52:57;1.00;80.00
10316;DHT22;5203;48.976;8.306;2023-01-29T17:55:30;1.10;79.80
10316;DHT22;5203;48.976;8.306;2023-01-29T17:57:57;1.10;80.10
10316;DHT22;5203;48.976;8.306;2023-01-29T18:00:26;1.00;80.20
10316;DHT22;5203;48.976;8.306;2023-01-29T18:02:51;0.90;80.80
10316;DHT22;5203;48.976;8.306;2023-01-29T18:05:18;1.00;80.90
10316;DHT22;5203;48.976;8.306;2023-01-29T18:07:45;1.00;80.60
10316;DHT22;5203;48.976;8.306;2023-01-29T18:10:18;1.10;80.50
10316;DHT22;5203;48.976;8.306;2023-01-29T18:12:48;1.10;79.60
10316;DHT22;5203;48.976;8.306;2023-01-29T18:15:14;1.00;80.60
10316;DHT22;5203;48.976;8.306;2023-01-29T18:17:40;0.90;81.10
10316;DHT22;5203;48.976;8.306;2023-01-29T18:20:19;0.90;81.10
10316;DHT22;5203;48.976;8.306;2023-01-29T18:22:46;0.80;81.80
10316;DHT22;5203;48.976;8.306;2023-01-29T18:25:12;0.80;82.40
10316;DHT22;5203;48.976;8.306;2023-01-29T18:27:38;0.80;82.80
10316;DHT22;5203;48.976;8.306;2023-01-29T18:30:05;0.70;83.10
10316;DHT22;5203;48.976;8.306;2023-01-29T18:32:31;0.60;84.00
10316;DHT22;5203;48.976;8.306;2023-01-29T18:34:57;0.60;84.00
10316;DHT22;5203;48.976;8.306;2023-01-29T18:37:41;0.60;84.60
10316;DHT22;5203;48.976;8.306;2023-01-29T18:40:13;0.70;84.30
10316;DHT22;5203;48.976;8.306;2023-01-29T18:42:50;0.60;84.30
10316;DHT22;5203;48.976;8.306;2023-01-29T18:45:22;0.80;84.30
10316;DHT22;5203;48.976;8.306;2023-01-29T18:51:02;0.90;82.60
10316;DHT22;5203;48.976;8.306;2023-01-29T18:54:25;0.90;82.90
10316;DHT22;5203;48.976;8.306;2023-01-29T19:00:01;0.90;82.70
10316;DHT22;5203;48.976;8.306;2023-01-29T19:06:23;0.70;84.10
10316;DHT22;5203;48.976;8.306;2023-01-29T19:09:08;0.70;83.70
10316;DHT22;5203;48.976;8.306;2023-01-29T19:12:14;0.80;83.20
10316;DHT22;5203;48.976;8.306;2023-01-29T19:15:10;0.60;83.90
10316;DHT22;5203;48.976;8.306;2023-01-29T19:17:47;0.70;84.70
10316;DHT22;5203;48.976;8.306;2023-01-29T19:20:24;0.60;84.80
10316;DHT22;5203;48.976;8.306;2023-01-29T19:23:29;0.60;85.30
10316;DHT22;5203;48.976;8.306;2023-01-29T19:26:27;0.50;86.70
10316;DHT22;5203;48.976;8.306;2023-01-29T19:29:38;0.30;88.10
10316;DHT22;5203;48.976;8.306;2023-01-29T19:35:22;0.20;90.40
10316;DHT22;5203;48.976;8.306;2023-01-29T19:37:48;0.20;90.40
10316;DHT22;5203;48.976;8.306;2023-01-29T19:40:23;0.20;90.10
10316;DHT22;5203;48.976;8.306;2023-01-29T19:42:53;0.20;90.60
10316;DHT22;5203;48.976;8.306;2023-01-29T19:45:20;0.30;90.00
10316;DHT22;5203;48.976;8.306;2023-01-29T19:47:51;0.40;89.20
10316;DHT22;5203;48.976;8.306;2023-01-29T19:50:23;0.50;88.50
10316;DHT22;5203;48.976;8.306;2023-01-29T19:52:51;0.30;89.50
10316;DHT22;5203;48.976;8.306;2023-01-29T19:55:19;0.30;89.50
10316;DHT22;5203;48.976;8.306;2023-01-29T19:57:53;0.40;89.90
10316;DHT22;5203;48.976;8.306;2023-01-29T20:00:19;0.40;89.10
10316;DHT22;5203;48.976;8.306;2023-01-29T20:02:46;0.30;89.50
10316;DHT22;5203;48.976;8.306;2023-01-29T20:05:14;0.30;90.40
10316;DHT22;5203;48.976;8.306;2023-01-29T20:07:42;0.30;90.60
10316;DHT22;5203;48.976;8.306;2023-01-29T20:10:23;0.20;91.10
10316;DHT22;5203;48.976;8.306;2023-01-29T20:12:55;0.10;92.30
10316;DHT22;5203;48.976;8.306;2023-01-29T20:15:22;0.20;91.80
10316;DHT22;5203;48.976;8.306;2023-01-29T20:17:55;0.20;91.50
10316;DHT22;5203;48.976;8.306;2023-01-29T20:20:23;0.30;91.80
10316;DHT22;5203;48.976;8.306;2023-01-29T20:22:48;0.40;91.30
10316;DHT22;5203;48.976;8.306;2023-01-29T20:25:16;0.30;91.30
10316;DHT22;5203;48.976;8.306;2023-01-29T20:27:45;0.40;91.70
10316;DHT22;5203;48.976;8.306;2023-01-29T20:30:14;0.40;91.50
10316;DHT22;5203;48.976;8.306;2023-01-29T20:32:39;0.30;91.50
10316;DHT22;5203;48.976;8.306;2023-01-29T20:35:06;0.30;92.50
10316;DHT22;5203;48.976;8.306;2023-01-29T20:37:34;0.30;92.20
10316;DHT22;5203;48.976;8.306;2023-01-29T20:40:04;0.40;91.60
10316;DHT22;5203;48.976;8.306;2023-01-29T20:42:30;0.40;91.30
10316;DHT22;5203;48.976;8.306;2023-01-29T20:44:56;0.30;91.80
10316;DHT22;5203;48.976;8.306;2023-01-29T20:47:22;0.30;92.50
10316;DHT22;5203;48.976;8.306;2023-01-29T20:49:48;0.20;92.10
10316;DHT22;5203;48.976;8.306;2023-01-29T20:52:18;0.20;93.10
10316;DHT22;5203;48.976;8.306;2023-01-29T20:54:47;0.20;93.40
10316;DHT22;5203;48.976;8.306;2023-01-29T20:57:15;0.10;94.00